createdAt,value
2023-04-08T00:00:16.497Z,70.20
2023-04-08T00:03:24.618Z,70.20
2023-04-08T00:06:28.637Z,70.20
2023-04-08T00:09:34.736Z,70.20
2023-04-08T00:12:38.630Z,70.10
2023-04-08T00:15:44.386Z,70.20
2023-04-08T00:18:51.095Z,70.20
2023-04-08T00:21:56.971Z,70.20
2023-04-08T00:25:01.411Z,70.10
2023-04-08T00:28:07.491Z,70.10
2023-04-08T00:31:11.286Z,70.20
2023-04-08T00:34:18.991Z,70.20
2023-04-08T00:37:22.771Z,70.10
2023-04-08T00:40:28.601Z,70.10
2023-04-08T00:43:32.553Z,70.10
2023-04-08T00:46:40.073Z,70.10
2023-04-08T00:49:46.008Z,70.00
2023-04-08T00:52:51.746Z,70.10
2023-04-08T00:55:55.702Z,70.10
2023-04-08T00:59:02.198Z,70.10
2023-04-08T01:02:10.525Z,70.00
2023-04-08T01:05:22.302Z,70.00
2023-04-08T01:08:29.285Z,70.10
2023-04-08T01:11:36.161Z,70.00
2023-04-08T01:14:41.819Z,70.10
2023-04-08T01:17:48.487Z,70.10
2023-04-08T01:20:55.575Z,70.10
2023-04-08T01:24:03.096Z,70.00
2023-04-08T01:27:09.280Z,70.10
2023-04-08T01:30:15.993Z,70.00
2023-04-08T01:33:21.720Z,70.00
2023-04-08T01:36:28.222Z,70.00
2023-04-08T01:39:32.649Z,70.00
2023-04-08T01:42:40.842Z,69.90
2023-04-08T01:45:45.755Z,70.00
2023-04-08T01:48:52.379Z,70.00
2023-04-08T01:51:56.882Z,70.00
2023-04-08T01:55:02.683Z,70.00
2023-04-08T01:58:09.158Z,70.00
2023-04-08T02:01:15.679Z,70.00
2023-04-08T02:04:19.608Z,70.10
2023-04-08T02:07:25.632Z,70.00
2023-04-08T02:10:29.558Z,70.00
2023-04-08T02:13:37.435Z,70.00
2023-04-08T02:16:43.880Z,70.00
2023-04-08T02:19:54.476Z,70.00
2023-04-08T02:23:01.021Z,70.00
2023-04-08T02:26:10.006Z,69.90
2023-04-08T02:29:17.199Z,70.00
2023-04-08T02:32:25.619Z,70.00
2023-04-08T02:35:29.978Z,69.90
2023-04-08T02:38:35.882Z,69.90
2023-04-08T02:41:39.797Z,70.00
2023-04-08T02:44:47.797Z,70.00
2023-04-08T02:47:51.926Z,70.00
2023-04-08T02:50:57.888Z,69.90
2023-04-08T02:54:01.834Z,70.00
2023-04-08T02:57:10.986Z,69.90
2023-04-08T03:00:17.533Z,69.90
2023-04-08T03:03:28.097Z,69.90
2023-04-08T03:06:32.338Z,70.00
2023-04-08T03:09:38.229Z,70.00
2023-04-08T03:12:42.269Z,69.90
2023-04-08T03:15:50.079Z,69.90
2023-04-08T03:18:54.000Z,70.00
2023-04-08T03:22:00.039Z,70.00
2023-04-08T03:25:04.010Z,69.90
2023-04-08T03:28:10.146Z,69.90
2023-04-08T03:31:15.829Z,70.00
2023-04-08T03:34:21.929Z,70.00
2023-04-08T03:37:25.893Z,70.00
2023-04-08T03:40:31.690Z,70.00
2023-04-08T03:43:37.863Z,70.10
2023-04-08T03:46:45.840Z,70.00
2023-04-08T03:49:49.763Z,70.00
2023-04-08T03:52:55.524Z,70.00
2023-04-08T03:55:59.527Z,69.90
2023-04-08T03:59:08.183Z,69.90
2023-04-08T04:02:14.496Z,70.00
2023-04-08T04:05:20.706Z,70.00
2023-04-08T04:08:24.464Z,70.00
2023-04-08T04:11:30.423Z,70.00
2023-04-08T04:14:34.123Z,70.00
2023-04-08T04:17:41.966Z,70.00
2023-04-08T04:20:45.829Z,70.10
2023-04-08T04:23:51.530Z,70.00
2023-04-08T04:26:55.445Z,70.00
2023-04-08T04:30:02.103Z,70.00
2023-04-08T04:33:08.105Z,70.10
2023-04-08T04:36:14.044Z,70.10
2023-04-08T04:39:17.680Z,70.20
2023-04-08T04:42:23.448Z,70.20
2023-04-08T04:45:27.169Z,70.20
2023-04-08T04:48:35.116Z,70.20
2023-04-08T04:51:38.838Z,70.20
2023-04-08T04:54:44.548Z,70.30
2023-04-08T04:57:48.361Z,70.30
2023-04-08T05:00:54.501Z,70.20
2023-04-08T05:04:00.505Z,70.30
2023-04-08T05:07:06.224Z,70.30
2023-04-08T05:10:10.517Z,70.30
2023-04-08T05:13:16.218Z,70.30
2023-04-08T05:16:19.974Z,70.30
2023-04-08T05:19:27.930Z,70.30
2023-04-08T05:22:31.898Z,70.30
2023-04-08T05:25:37.769Z,70.30
2023-04-08T05:28:44.310Z,70.30
2023-04-08T05:42:26.864Z,69.20
2023-04-08T05:45:33.491Z,70.10
2023-04-08T05:48:38.000Z,70.50
2023-04-08T05:51:44.259Z,71.00
2023-04-08T05:54:48.275Z,71.10
2023-04-08T05:57:56.453Z,71.20
2023-04-08T06:01:00.398Z,71.30
2023-04-08T06:04:06.996Z,71.40
2023-04-08T06:07:11.396Z,71.40
2023-04-08T06:10:17.596Z,71.40
2023-04-08T06:13:25.106Z,71.40
2023-04-08T06:16:31.132Z,71.50
2023-04-08T06:19:35.123Z,71.60
2023-04-08T06:22:41.167Z,71.60
2023-04-08T06:25:45.763Z,71.70
2023-04-08T06:28:53.747Z,72.40
2023-04-08T06:32:00.871Z,72.00
2023-04-08T06:35:08.412Z,72.20
2023-04-08T06:38:12.598Z,72.30
2023-04-08T06:41:18.832Z,72.40
2023-04-08T06:44:24.856Z,72.40
2023-04-08T06:47:31.150Z,72.40
2023-04-08T06:50:35.513Z,72.50
2023-04-08T06:53:41.571Z,72.60
2023-04-08T06:56:45.536Z,72.70
2023-04-08T06:59:54.552Z,72.70
2023-04-08T07:02:58.509Z,73.30
2023-04-08T07:06:06.293Z,72.60
2023-04-08T07:09:11.100Z,72.60
2023-04-08T07:12:17.433Z,72.60
2023-04-08T07:15:23.329Z,72.80
2023-04-08T07:18:29.280Z,72.90
2023-04-08T07:21:33.215Z,73.00
2023-04-08T07:24:42.369Z,73.00
2023-04-08T07:27:46.373Z,72.90
2023-04-08T07:30:54.823Z,73.00
2023-04-08T07:33:58.985Z,73.00
2023-04-08T07:37:05.304Z,73.10
2023-04-08T07:40:10.921Z,73.10
2023-04-08T07:43:17.176Z,73.10
2023-04-08T07:46:23.402Z,73.00
2023-04-08T07:49:29.849Z,72.90
2023-04-08T07:52:34.242Z,72.90
2023-04-08T07:55:41.969Z,72.90
2023-04-08T07:58:46.303Z,72.80
2023-04-08T08:01:54.878Z,72.80
2023-04-08T08:04:59.192Z,72.80
2023-04-08T08:08:07.068Z,72.80
2023-04-08T08:11:11.347Z,72.70
2023-04-08T08:14:17.578Z,72.70
2023-04-08T08:17:25.040Z,72.60
2023-04-08T08:20:32.464Z,72.50
2023-04-08T08:23:36.943Z,72.50
2023-04-08T08:26:44.626Z,72.50
2023-04-08T08:29:48.561Z,72.40
2023-04-08T08:32:58.645Z,72.50
2023-04-08T08:36:04.148Z,72.50
2023-04-08T08:39:10.316Z,72.50
2023-04-08T08:42:21.897Z,72.30
2023-04-08T08:45:28.210Z,72.20
2023-04-08T08:48:36.315Z,72.20
2023-04-08T08:51:43.233Z,72.00
2023-04-08T08:54:47.622Z,72.10
2023-04-08T08:57:54.086Z,72.00
2023-04-08T09:00:58.146Z,72.00
2023-04-08T09:04:16.042Z,72.10
2023-04-08T09:07:25.940Z,72.10
2023-04-08T09:10:31.883Z,72.20
2023-04-08T09:13:37.162Z,72.20
2023-04-08T09:16:45.009Z,72.10
2023-04-08T09:20:11.824Z,71.90
2023-04-08T09:23:18.403Z,71.80
2023-04-08T09:26:26.956Z,71.70
2023-04-08T09:29:35.927Z,71.50
2023-04-08T09:32:49.582Z,71.50
2023-04-08T09:35:57.979Z,71.40
2023-04-08T09:39:01.983Z,71.10
2023-04-08T09:42:13.372Z,71.10
2023-04-08T09:45:18.490Z,71.10
2023-04-08T09:48:29.570Z,71.00
2023-04-08T09:51:41.928Z,71.00
2023-04-08T09:54:56.542Z,70.90
2023-04-08T09:58:03.715Z,70.80
2023-04-08T10:01:11.581Z,70.80
2023-04-08T10:04:20.223Z,70.80
2023-04-08T10:07:29.027Z,70.90
2023-04-08T10:10:33.435Z,71.00
2023-04-08T10:13:39.596Z,71.00
2023-04-08T10:16:43.676Z,71.00
2023-04-08T10:19:49.855Z,70.80
2023-04-08T10:22:55.931Z,70.70
2023-04-08T10:26:01.896Z,70.60
2023-04-08T10:29:21.017Z,70.50
2023-04-08T10:32:31.164Z,70.40
2023-04-08T10:35:41.344Z,70.30
2023-04-08T10:38:49.268Z,70.30
2023-04-08T10:41:53.360Z,70.30
2023-04-08T10:45:03.316Z,70.30
2023-04-08T10:48:18.050Z,70.10
2023-04-08T10:51:24.561Z,70.00
2023-04-08T10:54:30.610Z,70.10
2023-04-08T10:57:36.719Z,70.00
2023-04-08T11:00:42.079Z,70.00
2023-04-08T11:03:48.594Z,69.80
2023-04-08T11:06:53.149Z,69.70
2023-04-08T11:10:05.566Z,69.70
2023-04-08T11:13:10.884Z,69.50
2023-04-08T11:16:18.592Z,69.30
2023-04-08T11:19:22.972Z,69.10
2023-04-08T11:22:30.536Z,69.00
2023-04-08T11:25:37.072Z,68.80
2023-04-08T11:28:43.278Z,68.60
2023-04-08T11:31:49.132Z,68.60
2023-04-08T11:34:55.244Z,68.50
2023-04-08T11:37:59.764Z,68.20
2023-04-08T11:41:07.858Z,68.10
2023-04-08T11:44:11.945Z,67.80
2023-04-08T11:47:17.938Z,67.80
2023-04-08T11:50:25.298Z,67.60
2023-04-08T11:53:31.600Z,67.70
2023-04-08T11:56:46.005Z,67.70
2023-04-08T11:59:52.219Z,67.80
2023-04-08T12:02:56.584Z,67.80
2023-04-08T12:06:04.013Z,67.70
2023-04-08T12:09:07.946Z,67.60
2023-04-08T12:12:16.398Z,67.50
2023-04-08T12:15:20.578Z,67.40
2023-04-08T12:18:26.570Z,67.40
2023-04-08T12:21:31.734Z,67.40
2023-04-08T12:24:37.919Z,67.40
2023-04-08T12:27:43.607Z,67.50
2023-04-08T12:30:49.594Z,67.40
2023-04-08T12:33:53.593Z,67.40
2023-04-08T12:36:59.851Z,67.50
2023-04-08T12:40:03.998Z,67.50
2023-04-08T12:43:12.263Z,67.50
2023-04-08T12:46:16.406Z,67.50
2023-04-08T12:49:23.454Z,67.60
2023-04-08T12:52:27.701Z,67.50
2023-04-08T12:55:33.837Z,67.60
2023-04-08T12:58:40.164Z,67.50
2023-04-08T13:01:46.700Z,67.40
2023-04-08T13:04:51.795Z,67.30
2023-04-08T13:07:57.864Z,67.30
2023-04-08T13:11:01.674Z,67.20
2023-04-08T13:14:09.657Z,67.30
2023-04-08T13:17:13.674Z,67.30
2023-04-08T13:20:20.157Z,67.30
2023-04-08T13:23:24.326Z,67.30
2023-04-08T13:26:30.304Z,67.40
2023-04-08T13:29:36.182Z,67.40
2023-04-08T13:32:42.534Z,67.40
2023-04-08T13:35:46.545Z,67.40
2023-04-08T13:38:53.195Z,67.30
2023-04-08T13:41:57.266Z,67.50
2023-04-08T13:45:05.678Z,67.40
2023-04-08T13:48:09.725Z,67.40
2023-04-08T13:51:16.054Z,67.50
2023-04-08T13:54:20.025Z,67.50
2023-04-08T13:57:26.262Z,67.50
2023-04-08T14:00:32.307Z,67.50
2023-04-08T14:03:38.250Z,67.60
2023-04-08T14:06:43.278Z,67.60
2023-04-08T14:09:49.482Z,67.60
2023-04-08T14:12:53.911Z,67.60
2023-04-08T14:16:02.646Z,67.60
2023-04-08T14:19:06.646Z,67.60
2023-04-08T14:22:12.917Z,67.60
2023-04-08T14:25:16.959Z,67.60
2023-04-08T14:28:22.944Z,67.70
2023-04-08T14:31:28.673Z,67.70
2023-04-08T14:34:34.729Z,67.80
2023-04-08T14:37:38.471Z,67.80
2023-04-08T14:40:44.202Z,67.70
2023-04-08T14:43:47.998Z,67.80
2023-04-08T14:46:55.852Z,67.80
2023-04-08T14:49:59.985Z,67.80
2023-04-08T14:53:05.708Z,67.80
2023-04-08T14:56:09.858Z,67.80
2023-04-08T14:59:15.922Z,67.80
2023-04-08T15:02:21.700Z,67.80
2023-04-08T15:05:27.513Z,67.80
2023-04-08T15:08:31.393Z,67.80
2023-04-08T15:11:37.202Z,67.90
2023-04-08T15:14:41.071Z,67.90
2023-04-08T15:17:51.605Z,67.90
2023-04-08T15:20:56.223Z,67.90
2023-04-08T15:24:02.604Z,67.90
2023-04-08T15:27:06.407Z,67.90
2023-04-08T15:30:12.736Z,68.00
2023-04-08T15:33:18.729Z,68.00
2023-04-08T15:36:24.712Z,68.70
2023-04-08T15:39:28.470Z,68.10
2023-04-08T15:42:35.191Z,68.00
2023-04-08T15:45:43.609Z,68.10
2023-04-08T15:48:51.608Z,68.00
2023-04-08T15:51:55.599Z,68.10
2023-04-08T15:55:02.059Z,68.10
2023-04-08T15:58:06.990Z,68.20
2023-04-08T16:01:12.951Z,68.20
2023-04-08T16:04:18.740Z,68.30
2023-04-08T16:07:24.881Z,68.90
2023-04-08T16:10:28.591Z,68.30
2023-04-08T16:13:34.398Z,68.30
2023-04-08T16:16:39.160Z,68.20
2023-04-08T16:19:47.445Z,68.30
2023-04-08T16:22:51.854Z,68.30
2023-04-08T16:25:57.625Z,68.40
2023-04-08T16:29:01.394Z,68.40
2023-04-08T16:32:08.412Z,68.40
2023-04-08T16:35:14.363Z,68.40
2023-04-08T16:38:20.520Z,68.40
2023-04-08T16:41:24.296Z,68.40
2023-04-08T16:44:30.521Z,68.50
2023-04-08T16:47:35.046Z,68.40
2023-04-08T16:50:42.954Z,68.40
2023-04-08T16:53:46.796Z,68.40
2023-04-08T16:56:52.593Z,68.40
2023-04-08T16:59:56.370Z,68.40
2023-04-08T17:03:02.441Z,68.40
2023-04-08T17:06:13.015Z,68.40
2023-04-08T17:09:18.833Z,68.40
2023-04-08T17:12:22.808Z,69.10
2023-04-08T17:15:28.714Z,68.50
2023-04-08T17:18:32.805Z,68.50
2023-04-08T17:21:41.596Z,68.50
2023-04-08T17:24:47.841Z,68.40
2023-04-08T17:27:54.190Z,68.80
2023-04-08T17:30:57.983Z,68.50
2023-04-08T17:34:03.919Z,68.50
2023-04-08T17:37:09.732Z,68.50
2023-04-08T17:40:16.040Z,68.50
2023-04-08T17:43:20.115Z,68.50
2023-04-08T17:46:26.210Z,68.50
2023-04-08T17:49:30.691Z,68.60
2023-04-08T17:52:38.372Z,68.50
2023-04-08T17:55:42.430Z,68.70
2023-04-08T17:58:48.751Z,68.60
2023-04-08T18:01:55.150Z,68.60
2023-04-08T18:05:01.399Z,68.60
2023-04-08T18:08:07.105Z,68.70
2023-04-08T18:11:13.111Z,68.70
2023-04-08T18:14:16.767Z,68.70
2023-04-08T18:17:22.562Z,68.80
2023-04-08T18:20:26.196Z,68.80
2023-04-08T18:23:34.419Z,68.80
2023-04-08T18:26:38.168Z,68.80
2023-04-08T18:29:44.102Z,68.70
2023-04-08T18:32:47.818Z,68.80
2023-04-08T18:35:54.241Z,68.80
2023-04-08T18:39:00.568Z,68.80
2023-04-08T18:42:06.296Z,68.80
2023-04-08T18:45:10.583Z,68.80
2023-04-08T18:48:16.331Z,68.80
2023-04-08T18:51:20.281Z,68.90
2023-04-08T18:54:28.234Z,68.90
2023-04-08T18:57:32.745Z,68.90
2023-04-08T19:00:40.743Z,68.90
2023-04-08T19:03:44.893Z,68.90
2023-04-08T19:06:51.015Z,68.90
2023-04-08T19:09:59.624Z,68.90
2023-04-08T19:13:05.548Z,69.00
2023-04-08T19:16:10.401Z,69.00
2023-04-08T19:19:16.227Z,69.00
2023-04-08T19:22:20.285Z,69.00
2023-04-08T19:25:28.167Z,69.10
2023-04-08T19:28:32.360Z,69.00
2023-04-08T19:31:38.476Z,69.10
2023-04-08T19:34:42.585Z,69.10
2023-04-08T19:37:48.346Z,69.10
2023-04-08T19:40:54.039Z,69.20
2023-04-08T19:43:59.952Z,69.80
2023-04-08T19:47:03.986Z,69.20
2023-04-08T19:50:10.364Z,69.20
2023-04-08T19:53:14.212Z,69.30
2023-04-08T19:56:21.926Z,69.20
2023-04-08T19:59:25.813Z,69.20
2023-04-08T20:02:31.668Z,69.30
2023-04-08T20:05:35.614Z,69.30
2023-04-08T20:08:41.383Z,69.30
2023-04-08T20:11:47.231Z,69.30
2023-04-08T20:14:52.995Z,69.30
2023-04-08T20:17:56.779Z,69.30
2023-04-08T20:21:02.586Z,69.30
2023-04-08T20:24:06.760Z,69.30
2023-04-08T20:27:14.627Z,69.40
2023-04-08T20:30:18.362Z,70.00
2023-04-08T20:33:25.156Z,69.40
2023-04-08T20:36:29.648Z,69.40
2023-04-08T20:39:35.678Z,69.40
2023-04-08T20:42:41.948Z,69.40
2023-04-08T20:45:47.904Z,69.40
2023-04-08T20:48:52.009Z,69.50
2023-04-08T20:51:57.994Z,69.50
2023-04-08T20:55:01.969Z,69.40
2023-04-08T20:58:10.584Z,69.40
2023-04-08T21:01:14.615Z,69.40
2023-04-08T21:04:20.332Z,69.50
2023-04-08T21:07:25.806Z,69.50
2023-04-08T21:10:31.554Z,69.50
2023-04-08T21:13:37.489Z,69.50
2023-04-08T21:16:43.553Z,69.60
2023-04-08T21:19:47.436Z,69.60
2023-04-08T21:22:53.474Z,69.60
2023-04-08T21:25:57.169Z,69.60
2023-04-08T21:29:04.899Z,69.60
2023-04-08T21:32:09.115Z,69.60
2023-04-08T21:35:14.965Z,69.60
2023-04-08T21:38:18.645Z,69.70
2023-04-08T21:41:24.526Z,70.30
2023-04-08T21:44:30.428Z,69.70
2023-04-08T21:47:36.440Z,69.70
2023-04-08T21:50:41.136Z,69.70
2023-04-08T21:53:46.935Z,69.80
2023-04-08T21:56:50.917Z,69.80
2023-04-08T21:59:58.899Z,69.80
2023-04-08T22:03:02.884Z,69.80
2023-04-08T22:06:10.981Z,69.80
2023-04-08T22:09:16.570Z,69.80
2023-04-08T22:12:22.354Z,69.80
2023-04-08T22:15:30.396Z,69.80
2023-04-08T22:18:36.401Z,69.90
2023-04-08T22:21:40.172Z,69.90
2023-04-08T22:24:46.110Z,69.90
2023-04-08T22:27:49.988Z,70.00
2023-04-08T22:30:57.996Z,70.00
2023-04-08T22:34:02.035Z,69.90
2023-04-08T22:37:08.263Z,69.90
2023-04-08T22:40:12.397Z,70.00
2023-04-08T22:43:18.393Z,70.00
2023-04-08T22:46:24.415Z,70.00
2023-04-08T22:49:30.248Z,70.00
2023-04-08T22:52:34.234Z,70.00
2023-04-08T22:55:40.058Z,70.00
2023-04-08T22:58:43.906Z,70.10
2023-04-08T23:01:51.587Z,70.10
2023-04-08T23:04:56.091Z,70.10
2023-04-08T23:08:02.154Z,70.10
2023-04-08T23:11:05.944Z,70.10
2023-04-08T23:14:11.872Z,70.10
2023-04-08T23:17:17.853Z,70.10
2023-04-08T23:20:23.566Z,70.20
2023-04-08T23:23:27.585Z,70.20
2023-04-08T23:26:33.812Z,70.20
2023-04-08T23:29:37.509Z,70.20
2023-04-08T23:32:45.789Z,70.20
2023-04-08T23:35:50.147Z,70.20
2023-04-08T23:38:56.170Z,70.20
2023-04-08T23:42:01.191Z,70.20
2023-04-08T23:45:07.403Z,70.20
2023-04-08T23:48:13.126Z,70.30
2023-04-08T23:51:18.899Z,70.30
2023-04-08T23:54:22.860Z,70.40
2023-04-08T23:57:29.121Z,70.30
